createdAt,value
2023-05-10T00:00:40.620Z,0.63
2023-05-10T00:01:40.626Z,0.63
2023-05-10T00:02:40.658Z,0.63
2023-05-10T00:03:40.624Z,0.64
2023-05-10T00:04:40.510Z,0.63
2023-05-10T00:05:40.470Z,0.62
2023-05-10T00:06:40.473Z,0.64
2023-05-10T00:07:40.403Z,0.62
2023-05-10T00:08:40.395Z,0.63
2023-05-10T00:09:40.362Z,0.62
2023-05-10T00:10:40.337Z,0.63
2023-05-10T00:11:40.298Z,0.62
2023-05-10T00:12:40.274Z,0.63
2023-05-10T00:13:40.273Z,0.62
2023-05-10T00:14:40.210Z,0.63
2023-05-10T00:15:40.180Z,0.62
2023-05-10T00:16:40.171Z,0.62
2023-05-10T00:17:40.205Z,0.63
2023-05-10T00:18:40.175Z,0.63
2023-05-10T00:19:40.080Z,0.63
2023-05-10T00:20:40.062Z,0.63
2023-05-10T00:21:40.023Z,0.62
2023-05-10T00:22:39.997Z,0.63
2023-05-10T00:23:39.973Z,0.63
2023-05-10T00:24:39.942Z,0.63
2023-05-10T00:25:39.904Z,0.62
2023-05-10T00:26:40.487Z,0.62
2023-05-10T00:27:39.849Z,0.62
2023-05-10T00:28:39.832Z,0.62
2023-05-10T00:29:39.793Z,0.61
2023-05-10T00:30:39.786Z,0.62
2023-05-10T00:31:39.804Z,0.62
2023-05-10T00:32:39.767Z,0.62
2023-05-10T00:33:39.685Z,0.62
2023-05-10T00:34:39.653Z,0.62
2023-05-10T00:35:39.637Z,0.63
2023-05-10T00:36:39.622Z,0.63
2023-05-10T00:37:39.593Z,0.63
2023-05-10T00:38:39.575Z,0.62
2023-05-10T00:39:39.573Z,0.63
2023-05-10T00:40:39.529Z,0.62
2023-05-10T00:41:39.505Z,0.62
2023-05-10T00:42:39.493Z,0.62
2023-05-10T00:43:39.494Z,0.62
2023-05-10T00:44:39.434Z,0.61
2023-05-10T00:45:39.420Z,0.60
2023-05-10T00:46:39.379Z,0.60
2023-05-10T00:47:39.407Z,0.61
2023-05-10T00:48:39.322Z,0.60
2023-05-10T00:49:39.306Z,0.61
2023-05-10T00:50:39.309Z,0.61
2023-05-10T00:51:39.276Z,0.61
2023-05-10T00:52:39.237Z,0.61
2023-05-10T00:53:39.202Z,0.59
2023-05-10T00:54:39.198Z,0.61
2023-05-10T00:55:39.147Z,0.62
2023-05-10T00:56:39.135Z,0.61
2023-05-10T00:57:39.106Z,0.61
2023-05-10T00:58:39.073Z,0.62
2023-05-10T00:59:39.035Z,0.60
2023-05-10T01:00:39.045Z,0.60
2023-05-10T01:01:39.008Z,0.60
2023-05-10T01:02:39.057Z,0.62
2023-05-10T01:03:39.018Z,0.61
2023-05-10T01:04:38.954Z,0.62
2023-05-10T01:05:38.885Z,0.61
2023-05-10T01:06:38.846Z,0.60
2023-05-10T01:07:38.876Z,0.60
2023-05-10T01:08:38.819Z,0.60
2023-05-10T01:09:38.842Z,0.60
2023-05-10T01:10:38.743Z,0.62
2023-05-10T01:11:38.725Z,0.61
2023-05-10T01:12:38.789Z,0.61
2023-05-10T01:13:39.014Z,0.61
2023-05-10T01:14:38.648Z,0.61
2023-05-10T01:15:38.687Z,0.60
2023-05-10T01:16:38.585Z,0.59
2023-05-10T01:17:38.611Z,0.60
2023-05-10T01:18:38.525Z,0.59
2023-05-10T01:19:38.500Z,0.58
2023-05-10T01:20:38.489Z,0.57
2023-05-10T01:21:38.459Z,0.58
2023-05-10T01:22:38.421Z,0.60
2023-05-10T01:23:38.518Z,0.58
2023-05-10T01:24:38.374Z,0.59
2023-05-10T01:25:38.359Z,0.59
2023-05-10T01:26:38.365Z,0.58
2023-05-10T01:27:38.327Z,0.59
2023-05-10T01:28:38.309Z,0.59
2023-05-10T01:29:38.272Z,0.57
2023-05-10T01:30:38.253Z,0.57
2023-05-10T01:31:38.221Z,0.58
2023-05-10T01:32:38.225Z,0.59
2023-05-10T01:33:38.184Z,0.59
2023-05-10T01:34:38.143Z,0.59
2023-05-10T01:35:38.137Z,0.59
2023-05-10T01:36:38.106Z,0.59
2023-05-10T01:37:38.174Z,0.59
2023-05-10T01:38:38.062Z,0.59
2023-05-10T01:39:38.044Z,0.59
2023-05-10T01:40:38.009Z,0.58
2023-05-10T01:41:38.007Z,0.59
2023-05-10T01:42:37.972Z,0.58
2023-05-10T01:43:37.948Z,0.57
2023-05-10T01:44:37.918Z,0.58
2023-05-10T01:45:37.905Z,0.59
2023-05-10T01:46:37.969Z,0.58
2023-05-10T01:47:37.851Z,0.59
2023-05-10T01:48:37.842Z,0.59
2023-05-10T01:49:37.821Z,0.58
2023-05-10T01:50:37.791Z,0.57
2023-05-10T01:51:37.747Z,0.58
2023-05-10T01:52:37.732Z,0.59
2023-05-10T01:53:37.696Z,0.58
2023-05-10T01:54:37.680Z,0.57
2023-05-10T01:55:37.652Z,0.58
2023-05-10T01:56:37.617Z,0.57
2023-05-10T01:57:37.596Z,0.57
2023-05-10T01:58:37.560Z,0.56
2023-05-10T01:59:37.565Z,0.57
2023-05-10T02:00:37.579Z,0.57
2023-05-10T02:01:37.488Z,0.58
2023-05-10T02:02:37.457Z,0.58
2023-05-10T02:03:37.462Z,0.58
2023-05-10T02:04:37.436Z,0.57
2023-05-10T02:05:37.394Z,0.57
2023-05-10T02:06:37.394Z,0.57
2023-05-10T02:07:37.353Z,0.57
2023-05-10T02:08:37.329Z,0.58
2023-05-10T02:09:37.295Z,0.58
2023-05-10T02:10:37.274Z,0.56
2023-05-10T02:11:37.252Z,0.57
2023-05-10T02:12:37.239Z,0.58
2023-05-10T02:13:37.243Z,0.57
2023-05-10T02:14:37.248Z,0.56
2023-05-10T02:15:37.172Z,0.56
2023-05-10T02:16:37.190Z,0.57
2023-05-10T02:17:37.185Z,0.57
2023-05-10T02:18:37.104Z,0.57
2023-05-10T02:19:37.074Z,0.58
2023-05-10T02:20:37.052Z,0.58
2023-05-10T02:21:37.014Z,0.56
2023-05-10T02:22:36.996Z,0.57
2023-05-10T02:23:36.976Z,0.56
2023-05-10T02:24:36.950Z,0.57
2023-05-10T02:25:36.940Z,0.56
2023-05-10T02:26:36.932Z,0.57
2023-05-10T02:27:36.922Z,0.55
2023-05-10T02:28:36.919Z,0.57
2023-05-10T02:29:36.903Z,0.56
2023-05-10T02:30:36.883Z,0.55
2023-05-10T02:31:36.905Z,0.57
2023-05-10T02:32:36.884Z,0.55
2023-05-10T02:33:36.860Z,0.55
2023-05-10T02:34:36.850Z,0.56
2023-05-10T02:35:36.836Z,0.55
2023-05-10T02:36:36.847Z,0.57
2023-05-10T02:37:36.828Z,0.55
2023-05-10T02:38:36.811Z,0.56
2023-05-10T02:39:36.802Z,0.56
2023-05-10T02:40:36.803Z,0.56
2023-05-10T02:41:36.800Z,0.55
2023-05-10T02:42:36.797Z,0.55
2023-05-10T02:43:36.786Z,0.56
2023-05-10T02:44:36.821Z,0.55
2023-05-10T02:45:36.810Z,0.56
2023-05-10T02:46:36.855Z,0.55
2023-05-10T02:47:36.827Z,0.57
2023-05-10T02:48:36.803Z,0.55
2023-05-10T02:49:36.788Z,0.56
2023-05-10T02:50:36.779Z,0.55
2023-05-10T02:51:36.776Z,0.56
2023-05-10T02:52:36.779Z,0.55
2023-05-10T02:53:36.786Z,0.54
2023-05-10T02:54:36.777Z,0.54
2023-05-10T02:55:36.765Z,0.55
2023-05-10T02:56:36.765Z,0.56
2023-05-10T02:57:36.753Z,0.54
2023-05-10T02:58:36.743Z,0.54
2023-05-10T02:59:36.727Z,0.55
2023-05-10T03:00:36.724Z,0.55
2023-05-10T03:01:36.765Z,0.56
2023-05-10T03:02:36.765Z,0.54
2023-05-10T03:03:36.730Z,0.55
2023-05-10T03:04:36.744Z,0.55
2023-05-10T03:05:36.710Z,0.54
2023-05-10T03:06:36.715Z,0.56
2023-05-10T03:07:36.713Z,0.56
2023-05-10T03:08:36.713Z,0.56
2023-05-10T03:09:36.728Z,0.55
2023-05-10T03:10:36.700Z,0.55
2023-05-10T03:11:36.742Z,0.54
2023-05-10T03:12:36.706Z,0.55
2023-05-10T03:13:36.718Z,0.56
2023-05-10T03:14:36.716Z,0.55
2023-05-10T03:15:36.715Z,0.54
2023-05-10T03:16:36.705Z,0.55
2023-05-10T03:17:36.747Z,0.55
2023-05-10T03:18:36.711Z,0.55
2023-05-10T03:19:36.713Z,0.55
2023-05-10T03:20:36.710Z,0.55
2023-05-10T03:21:36.713Z,0.54
2023-05-10T03:22:36.710Z,0.54
2023-05-10T03:23:36.714Z,0.55
2023-05-10T03:24:36.701Z,0.55
2023-05-10T03:25:36.696Z,0.54
2023-05-10T03:26:36.702Z,0.54
2023-05-10T03:27:36.796Z,0.55
2023-05-10T03:28:36.757Z,0.53
2023-05-10T03:29:36.691Z,0.54
2023-05-10T03:30:36.700Z,0.55
2023-05-10T03:31:36.736Z,0.54
2023-05-10T03:32:36.715Z,0.55
2023-05-10T03:33:36.714Z,0.53
2023-05-10T03:34:36.722Z,0.54
2023-05-10T03:35:36.706Z,0.54
2023-05-10T03:36:36.709Z,0.54
2023-05-10T03:37:36.712Z,0.53
2023-05-10T03:38:36.731Z,0.54
2023-05-10T03:39:36.719Z,0.54
2023-05-10T03:40:36.740Z,0.53
2023-05-10T03:41:36.717Z,0.54
2023-05-10T03:42:36.740Z,0.55
2023-05-10T03:43:36.776Z,0.54
2023-05-10T03:44:36.734Z,0.53
2023-05-10T03:45:36.746Z,0.52
2023-05-10T03:46:36.762Z,0.53
2023-05-10T03:47:36.797Z,0.53
2023-05-10T03:48:36.759Z,0.52
2023-05-10T03:49:36.765Z,0.53
2023-05-10T03:50:36.778Z,0.53
2023-05-10T03:51:36.762Z,0.53
2023-05-10T03:52:36.772Z,0.53
2023-05-10T03:53:36.769Z,0.53
2023-05-10T03:54:36.788Z,0.53
2023-05-10T03:55:36.774Z,0.53
2023-05-10T03:56:36.789Z,0.53
2023-05-10T03:57:36.786Z,0.53
2023-05-10T03:58:36.796Z,0.52
2023-05-10T03:59:36.812Z,0.53
2023-05-10T04:00:36.817Z,0.52
2023-05-10T04:01:36.849Z,0.53
2023-05-10T04:02:36.937Z,0.52
2023-05-10T04:03:36.894Z,0.51
2023-05-10T04:04:36.831Z,0.52
2023-05-10T04:05:36.833Z,0.52
2023-05-10T04:06:36.904Z,0.52
2023-05-10T04:07:36.853Z,0.52
2023-05-10T04:08:36.838Z,0.52
2023-05-10T04:09:36.851Z,0.52
2023-05-10T04:10:36.853Z,0.51
2023-05-10T04:11:36.866Z,0.52
2023-05-10T04:12:36.868Z,0.51
2023-05-10T04:13:36.864Z,0.52
2023-05-10T04:14:36.869Z,0.52
2023-05-10T04:15:36.892Z,0.51
2023-05-10T04:16:36.929Z,0.52
2023-05-10T04:17:36.931Z,0.52
2023-05-10T04:18:36.898Z,0.51
2023-05-10T04:19:36.904Z,0.52
2023-05-10T04:20:36.936Z,0.51
2023-05-10T04:21:36.922Z,0.51
2023-05-10T04:22:36.935Z,0.50
2023-05-10T04:23:36.982Z,0.52
2023-05-10T04:24:36.944Z,0.51
2023-05-10T04:25:36.954Z,0.52
2023-05-10T04:26:36.984Z,0.51
2023-05-10T04:27:36.994Z,0.51
2023-05-10T04:28:36.983Z,0.51
2023-05-10T04:29:36.987Z,0.51
2023-05-10T04:30:37.038Z,0.51
2023-05-10T04:31:37.003Z,0.51
2023-05-10T04:32:37.092Z,0.51
2023-05-10T04:33:37.026Z,0.51
2023-05-10T04:34:37.064Z,0.51
2023-05-10T04:35:37.058Z,0.51
2023-05-10T04:36:37.069Z,0.50
2023-05-10T04:37:37.080Z,0.51
2023-05-10T04:38:37.091Z,0.50
2023-05-10T04:39:37.110Z,0.52
2023-05-10T04:40:37.116Z,0.50
2023-05-10T04:41:37.133Z,0.51
2023-05-10T04:42:37.143Z,0.51
2023-05-10T04:43:37.258Z,0.51
2023-05-10T04:44:37.198Z,0.51
2023-05-10T04:45:37.166Z,0.52
2023-05-10T04:46:37.297Z,0.51
2023-05-10T04:47:37.253Z,0.52
2023-05-10T04:48:37.214Z,0.52
2023-05-10T04:49:37.231Z,0.51
2023-05-10T04:50:37.225Z,0.52
2023-05-10T04:51:37.333Z,0.50
2023-05-10T04:52:37.256Z,0.52
2023-05-10T04:53:38.066Z,0.52
2023-05-10T04:54:37.274Z,0.52
2023-05-10T04:55:37.280Z,0.52
2023-05-10T04:56:37.275Z,0.51
2023-05-10T04:57:37.295Z,0.51
2023-05-10T04:58:37.299Z,0.51
2023-05-10T04:59:37.331Z,0.51
2023-05-10T05:00:37.324Z,0.51
2023-05-10T05:01:37.384Z,0.51
2023-05-10T05:02:37.467Z,0.50
2023-05-10T05:03:37.392Z,0.51
2023-05-10T05:04:37.358Z,0.51
2023-05-10T05:05:37.401Z,0.51
2023-05-10T05:06:37.391Z,0.51
2023-05-10T05:07:37.462Z,0.51
2023-05-10T05:08:37.398Z,0.51
2023-05-10T05:09:37.402Z,0.51
2023-05-10T05:10:37.408Z,0.51
2023-05-10T05:11:37.408Z,0.50
2023-05-10T05:12:37.420Z,0.50
2023-05-10T05:13:37.429Z,0.51
2023-05-10T05:14:37.464Z,0.51
2023-05-10T05:15:37.452Z,0.51
2023-05-10T05:16:37.607Z,0.51
2023-05-10T05:17:37.498Z,0.51
2023-05-10T05:18:37.470Z,0.51
2023-05-10T05:19:37.480Z,0.52
2023-05-10T05:20:37.490Z,0.52
2023-05-10T05:21:37.495Z,0.53
2023-05-10T05:22:37.576Z,0.53
2023-05-10T05:23:37.503Z,0.54
2023-05-10T05:24:37.528Z,0.55
2023-05-10T05:25:37.539Z,0.53
2023-05-10T05:26:38.505Z,0.55
2023-05-10T05:27:37.614Z,0.56
2023-05-10T05:28:37.546Z,0.66
2023-05-10T05:29:38.512Z,0.66
2023-05-10T05:30:37.507Z,0.65
2023-05-10T05:31:39.082Z,0.66
2023-05-10T05:32:37.457Z,0.62
2023-05-10T05:33:37.404Z,0.64
2023-05-10T05:34:37.396Z,0.65
2023-05-10T05:35:37.371Z,0.64
2023-05-10T05:36:37.711Z,0.68
2023-05-10T05:37:37.306Z,0.70
2023-05-10T05:38:37.284Z,0.75
2023-05-10T05:39:37.297Z,0.77
2023-05-10T05:40:37.388Z,0.80
2023-05-10T05:41:37.213Z,0.84
2023-05-10T05:42:37.172Z,0.87
2023-05-10T05:43:38.328Z,0.94
2023-05-10T05:44:37.181Z,0.98
2023-05-10T05:45:37.269Z,1.01
2023-05-10T05:46:37.249Z,1.08
2023-05-10T05:47:37.393Z,1.14
2023-05-10T05:48:37.332Z,1.16
2023-05-10T05:49:37.366Z,1.21
2023-05-10T05:50:37.371Z,1.26
2023-05-10T05:51:37.391Z,1.32
2023-05-10T05:52:37.419Z,1.35
2023-05-10T05:53:37.434Z,1.39
2023-05-10T05:54:39.059Z,1.46
2023-05-10T05:55:37.462Z,1.52
2023-05-10T05:56:37.460Z,1.62
2023-05-10T05:57:37.487Z,1.70
2023-05-10T05:58:37.489Z,1.77
2023-05-10T05:59:37.486Z,1.85
2023-05-10T06:00:37.529Z,1.95
2023-05-10T06:01:37.484Z,2.08
2023-05-10T06:02:37.630Z,2.14
2023-05-10T06:03:37.561Z,2.21
2023-05-10T06:04:37.532Z,2.29
2023-05-10T06:05:37.629Z,2.43
2023-05-10T06:06:37.479Z,2.53
2023-05-10T06:07:37.492Z,2.64
2023-05-10T06:08:37.467Z,2.84
2023-05-10T06:09:37.467Z,2.91
2023-05-10T06:10:37.451Z,2.99
2023-05-10T06:11:37.490Z,3.12
2023-05-10T06:12:37.419Z,3.30
2023-05-10T06:13:37.403Z,3.43
2023-05-10T06:14:37.377Z,3.43
2023-05-10T06:15:37.382Z,3.53
2023-05-10T06:16:37.390Z,3.70
2023-05-10T06:17:37.341Z,3.75
2023-05-10T06:18:37.297Z,3.89
2023-05-10T06:19:37.269Z,3.91
2023-05-10T06:20:37.276Z,4.00
2023-05-10T06:21:37.234Z,4.15
2023-05-10T06:22:37.199Z,4.23
2023-05-10T06:23:37.159Z,4.32
2023-05-10T06:24:37.170Z,4.37
2023-05-10T06:25:37.162Z,4.33
2023-05-10T06:26:37.609Z,4.49
2023-05-10T06:27:37.160Z,4.08
2023-05-10T06:28:37.158Z,2.26
2023-05-10T06:29:37.050Z,1.51
2023-05-10T06:30:37.068Z,0.94
2023-05-10T06:31:37.133Z,0.61
2023-05-10T06:32:37.092Z,0.50
2023-05-10T06:33:37.072Z,0.49
2023-05-10T06:34:37.049Z,0.50
2023-05-10T06:35:37.047Z,0.49
2023-05-10T06:36:37.041Z,0.51
2023-05-10T06:37:37.032Z,0.48
2023-05-10T06:38:37.058Z,0.50
2023-05-10T06:39:37.051Z,0.50
2023-05-10T06:40:37.609Z,0.53
2023-05-10T06:41:37.062Z,0.50
2023-05-10T06:42:37.069Z,0.48
2023-05-10T06:43:37.039Z,0.50
2023-05-10T06:44:37.034Z,0.51
2023-05-10T06:45:37.034Z,0.52
2023-05-10T06:46:37.079Z,0.50
2023-05-10T06:47:38.794Z,0.51
2023-05-10T06:48:37.049Z,0.50
2023-05-10T06:49:38.035Z,0.51
2023-05-10T06:50:36.999Z,0.52
2023-05-10T06:51:36.963Z,0.55
2023-05-10T06:52:36.938Z,0.62
2023-05-10T06:53:36.941Z,0.75
2023-05-10T06:54:36.916Z,0.79
2023-05-10T06:55:36.886Z,0.85
2023-05-10T06:56:36.839Z,0.88
2023-05-10T06:57:36.813Z,0.91
2023-05-10T06:58:36.838Z,0.92
2023-05-10T06:59:36.850Z,0.94
2023-05-10T07:00:36.816Z,0.95
2023-05-10T07:01:36.828Z,0.98
2023-05-10T07:02:36.895Z,1.05
2023-05-10T07:03:36.856Z,1.04
2023-05-10T07:04:36.940Z,1.12
2023-05-10T07:05:36.982Z,1.16
2023-05-10T07:06:36.950Z,1.14
2023-05-10T07:07:36.955Z,1.10
2023-05-10T07:08:36.975Z,1.07
2023-05-10T07:09:36.996Z,1.06
2023-05-10T07:10:37.029Z,1.05
2023-05-10T07:11:37.025Z,1.02
2023-05-10T07:12:37.090Z,0.99
2023-05-10T07:13:37.037Z,0.99
2023-05-10T07:14:37.052Z,0.99
2023-05-10T07:15:37.062Z,1.05
2023-05-10T07:16:37.102Z,1.10
2023-05-10T07:17:37.155Z,1.13
2023-05-10T07:18:37.111Z,1.15
2023-05-10T07:19:37.117Z,1.08
2023-05-10T07:20:37.105Z,1.08
2023-05-10T07:21:37.210Z,1.07
2023-05-10T07:22:37.213Z,1.11
2023-05-10T07:23:37.188Z,1.11
2023-05-10T07:24:37.190Z,1.14
2023-05-10T07:25:37.218Z,1.17
2023-05-10T07:26:37.266Z,1.17
2023-05-10T07:27:37.285Z,1.20
2023-05-10T07:28:37.303Z,1.22
2023-05-10T07:29:37.362Z,1.26
2023-05-10T07:30:37.387Z,1.23
2023-05-10T07:31:37.429Z,1.23
2023-05-10T07:32:37.511Z,1.27
2023-05-10T07:33:37.478Z,1.31
2023-05-10T07:34:37.517Z,1.34
2023-05-10T07:35:37.559Z,1.36
2023-05-10T07:36:37.597Z,1.34
2023-05-10T07:37:37.632Z,1.38
2023-05-10T07:38:40.243Z,1.36
2023-05-10T07:39:37.643Z,1.39
2023-05-10T07:40:37.623Z,1.40
2023-05-10T07:41:37.596Z,1.40
2023-05-10T07:42:37.616Z,1.43
2023-05-10T07:43:37.538Z,1.42
2023-05-10T07:44:37.519Z,1.43
2023-05-10T07:45:37.505Z,1.42
2023-05-10T07:46:37.523Z,1.45
2023-05-10T07:47:37.485Z,1.45
2023-05-10T07:48:37.412Z,1.42
2023-05-10T07:49:37.392Z,1.45
2023-05-10T07:50:37.347Z,1.45
2023-05-10T07:51:37.319Z,1.45
2023-05-10T07:52:37.290Z,1.46
2023-05-10T07:53:37.261Z,1.45
2023-05-10T07:54:37.242Z,1.47
2023-05-10T07:55:37.211Z,1.46
2023-05-10T07:56:37.199Z,1.46
2023-05-10T07:57:37.141Z,1.46
2023-05-10T07:58:37.114Z,1.45
2023-05-10T07:59:37.102Z,1.46
2023-05-10T08:00:37.064Z,1.51
2023-05-10T08:01:37.051Z,1.48
2023-05-10T08:02:37.155Z,1.47
2023-05-10T08:03:37.134Z,1.48
2023-05-10T08:04:36.999Z,1.46
2023-05-10T08:05:36.923Z,1.49
2023-05-10T08:06:36.907Z,1.49
2023-05-10T08:07:36.871Z,1.50
2023-05-10T08:08:36.846Z,1.49
2023-05-10T08:09:36.823Z,1.50
2023-05-10T08:10:36.796Z,1.47
2023-05-10T08:11:37.707Z,1.50
2023-05-10T08:12:36.739Z,1.48
2023-05-10T08:13:36.715Z,1.47
2023-05-10T08:14:36.686Z,1.46
2023-05-10T08:15:36.688Z,1.45
2023-05-10T08:16:36.632Z,1.46
2023-05-10T08:17:36.624Z,1.44
2023-05-10T08:18:36.606Z,1.48
2023-05-10T08:19:36.557Z,1.44
2023-05-10T08:20:36.554Z,1.46
2023-05-10T08:21:36.583Z,1.42
2023-05-10T08:22:36.599Z,1.44
2023-05-10T08:23:36.612Z,1.45
2023-05-10T08:24:36.608Z,1.44
2023-05-10T08:25:36.627Z,1.47
2023-05-10T08:26:36.611Z,1.44
2023-05-10T08:27:36.616Z,1.42
2023-05-10T08:28:36.656Z,1.44
2023-05-10T08:29:48.921Z,1.40
2023-05-10T08:30:37.635Z,1.41
2023-05-10T08:31:36.647Z,1.41
2023-05-10T08:32:36.614Z,1.42
2023-05-10T08:33:36.552Z,1.42
2023-05-10T08:34:36.534Z,1.43
2023-05-10T08:35:36.511Z,1.45
2023-05-10T08:36:36.480Z,1.42
2023-05-10T08:37:36.450Z,1.43
2023-05-10T08:38:36.459Z,1.41
2023-05-10T08:39:36.429Z,1.43
2023-05-10T08:40:36.658Z,1.42
2023-05-10T08:41:38.175Z,1.39
2023-05-10T08:42:36.531Z,1.41
2023-05-10T08:43:36.557Z,1.41
2023-05-10T08:44:36.572Z,1.39
2023-05-10T08:45:36.588Z,1.41
2023-05-10T08:46:36.651Z,1.39
2023-05-10T08:47:36.677Z,1.41
2023-05-10T08:48:36.644Z,1.38
2023-05-10T08:49:36.643Z,1.39
2023-05-10T08:50:36.682Z,1.40
2023-05-10T08:51:36.757Z,1.37
2023-05-10T08:52:36.720Z,1.39
2023-05-10T08:53:36.748Z,1.38
2023-05-10T08:54:36.797Z,1.39
2023-05-10T08:55:36.828Z,1.37
2023-05-10T08:56:36.817Z,1.37
2023-05-10T08:57:36.857Z,1.36
2023-05-10T08:58:37.774Z,1.36
2023-05-10T08:59:36.825Z,1.36
2023-05-10T09:00:36.872Z,1.37
2023-05-10T09:01:36.795Z,1.38
2023-05-10T09:02:36.767Z,1.39
2023-05-10T09:03:36.764Z,1.36
2023-05-10T09:04:36.839Z,1.39
2023-05-10T09:05:36.703Z,1.37
2023-05-10T09:06:36.677Z,1.36
2023-05-10T09:07:36.751Z,1.33
2023-05-10T09:08:36.611Z,1.36
2023-05-10T09:09:36.588Z,1.38
2023-05-10T09:10:36.581Z,1.38
2023-05-10T09:11:36.594Z,1.36
2023-05-10T09:12:36.571Z,1.38
2023-05-10T09:13:36.563Z,1.34
2023-05-10T09:14:36.564Z,1.38
2023-05-10T09:15:36.562Z,1.35
2023-05-10T09:16:36.590Z,1.36
2023-05-10T09:17:36.597Z,1.35
2023-05-10T09:18:36.577Z,1.35
2023-05-10T09:19:36.559Z,1.33
2023-05-10T09:20:36.515Z,1.33
2023-05-10T09:21:36.478Z,1.34
2023-05-10T09:22:36.449Z,1.34
2023-05-10T09:23:36.443Z,1.37
2023-05-10T09:24:36.401Z,1.36
2023-05-10T09:25:36.427Z,1.34
2023-05-10T09:26:36.353Z,1.34
2023-05-10T09:27:36.323Z,1.35
2023-05-10T09:28:36.290Z,1.36
2023-05-10T09:29:36.281Z,1.36
2023-05-10T09:30:36.296Z,1.36
2023-05-10T09:31:36.265Z,1.37
2023-05-10T09:32:36.223Z,1.31
2023-05-10T09:33:36.157Z,1.36
2023-05-10T09:34:36.133Z,1.35
2023-05-10T09:35:36.105Z,1.34
2023-05-10T09:36:36.078Z,1.36
2023-05-10T09:37:36.049Z,1.38
2023-05-10T09:38:36.008Z,1.33
2023-05-10T09:39:35.997Z,1.37
2023-05-10T09:40:35.959Z,1.36
2023-05-10T09:41:35.927Z,1.36
2023-05-10T09:42:35.907Z,1.33
2023-05-10T09:43:35.881Z,1.33
2023-05-10T09:44:35.880Z,1.36
2023-05-10T09:45:38.305Z,1.36
2023-05-10T09:46:35.835Z,1.35
2023-05-10T09:47:35.827Z,1.35
2023-05-10T09:48:35.755Z,1.33
2023-05-10T09:49:35.747Z,1.34
2023-05-10T09:50:35.715Z,1.33
2023-05-10T09:51:36.785Z,1.33
2023-05-10T09:52:35.664Z,1.35
2023-05-10T09:53:35.641Z,1.32
2023-05-10T09:54:35.647Z,1.32
2023-05-10T09:55:35.597Z,1.31
2023-05-10T09:56:35.582Z,1.31
2023-05-10T09:57:35.545Z,1.31
2023-05-10T09:58:35.525Z,1.31
2023-05-10T09:59:35.496Z,1.31
2023-05-10T10:00:35.477Z,1.31
2023-05-10T10:01:35.492Z,1.28
2023-05-10T10:02:35.476Z,1.30
2023-05-10T10:03:35.411Z,1.29
2023-05-10T10:04:35.425Z,1.31
2023-05-10T10:05:35.395Z,1.31
2023-05-10T10:06:35.363Z,1.29
2023-05-10T10:07:35.389Z,1.29
2023-05-10T10:08:35.306Z,1.28
2023-05-10T10:09:35.276Z,1.29
2023-05-10T10:10:35.249Z,1.28
2023-05-10T10:11:35.230Z,1.28
2023-05-10T10:12:35.202Z,1.30
2023-05-10T10:13:35.171Z,1.30
2023-05-10T10:14:35.140Z,1.29
2023-05-10T10:15:35.162Z,1.33
2023-05-10T10:16:35.117Z,1.29
2023-05-10T10:17:35.103Z,1.30
2023-05-10T10:18:35.080Z,1.27
2023-05-10T10:19:35.029Z,1.27
2023-05-10T10:20:34.985Z,1.25
2023-05-10T10:21:34.955Z,1.26
2023-05-10T10:22:34.934Z,1.28
2023-05-10T10:23:34.935Z,1.28
2023-05-10T10:24:34.982Z,1.28
2023-05-10T10:25:34.879Z,1.29
2023-05-10T10:26:34.848Z,1.28
2023-05-10T10:27:34.829Z,1.26
2023-05-10T10:28:34.794Z,1.26
2023-05-10T10:29:34.760Z,1.28
2023-05-10T10:30:34.757Z,1.27
2023-05-10T10:31:34.791Z,1.26
2023-05-10T10:32:34.735Z,1.25
2023-05-10T10:33:34.775Z,1.26
2023-05-10T10:34:34.659Z,1.24
2023-05-10T10:35:34.610Z,1.25
2023-05-10T10:36:34.576Z,1.25
2023-05-10T10:37:34.567Z,1.24
2023-05-10T10:38:34.526Z,1.26
2023-05-10T10:39:34.525Z,1.23
2023-05-10T10:40:35.100Z,1.22
2023-05-10T10:41:34.457Z,1.24
2023-05-10T10:42:34.501Z,1.23
2023-05-10T10:43:34.386Z,1.25
2023-05-10T10:44:34.394Z,1.25
2023-05-10T10:45:35.333Z,1.25
2023-05-10T10:46:34.364Z,1.26
2023-05-10T10:47:34.432Z,1.26
2023-05-10T10:48:34.266Z,1.26
2023-05-10T10:49:34.255Z,1.24
2023-05-10T10:50:34.235Z,1.26
2023-05-10T10:51:34.171Z,1.24
2023-05-10T10:52:34.289Z,1.24
2023-05-10T10:53:34.151Z,1.25
2023-05-10T10:54:34.082Z,1.23
2023-05-10T10:55:34.082Z,1.23
2023-05-10T10:56:35.161Z,1.23
2023-05-10T10:57:33.989Z,1.24
2023-05-10T10:58:34.006Z,1.22
2023-05-10T10:59:33.969Z,1.21
2023-05-10T11:00:33.973Z,1.23
2023-05-10T11:01:34.010Z,1.22
2023-05-10T11:02:33.943Z,1.21
2023-05-10T11:03:33.910Z,1.20
2023-05-10T11:04:33.969Z,1.20
2023-05-10T11:05:33.861Z,1.21
2023-05-10T11:06:33.863Z,1.19
2023-05-10T11:07:33.838Z,1.20
2023-05-10T11:08:35.114Z,1.21
2023-05-10T11:09:34.116Z,1.23
2023-05-10T11:10:33.774Z,1.21
2023-05-10T11:11:33.748Z,1.20
2023-05-10T11:12:33.714Z,1.22
2023-05-10T11:13:33.685Z,1.19
2023-05-10T11:14:33.685Z,1.19
2023-05-10T11:15:33.640Z,1.20
2023-05-10T11:16:33.657Z,1.19
2023-05-10T11:17:33.617Z,1.17
2023-05-10T11:18:33.556Z,1.19
2023-05-10T11:19:33.513Z,1.17
2023-05-10T11:20:33.484Z,1.18
2023-05-10T11:21:33.486Z,1.17
2023-05-10T11:22:33.487Z,1.19
2023-05-10T11:23:33.433Z,1.17
2023-05-10T11:24:33.373Z,1.16
2023-05-10T11:25:33.345Z,1.15
2023-05-10T11:26:33.306Z,1.16
2023-05-10T11:27:33.276Z,1.18
2023-05-10T11:28:33.260Z,1.16
2023-05-10T11:29:33.225Z,1.17
2023-05-10T11:30:33.274Z,1.15
2023-05-10T11:31:33.193Z,1.17
2023-05-10T11:32:33.176Z,1.18
2023-05-10T11:33:33.717Z,1.17
2023-05-10T11:34:33.070Z,1.16
2023-05-10T11:35:33.046Z,1.18
2023-05-10T11:36:33.034Z,1.17
2023-05-10T11:37:32.977Z,1.14
2023-05-10T11:38:32.936Z,1.15
2023-05-10T11:39:32.921Z,1.15
2023-05-10T11:40:32.886Z,1.13
2023-05-10T11:41:32.883Z,1.11
2023-05-10T11:42:32.820Z,1.13
2023-05-10T11:43:32.813Z,1.16
2023-05-10T11:44:32.827Z,1.10
2023-05-10T11:45:32.733Z,1.14
2023-05-10T11:46:32.840Z,1.14
2023-05-10T11:47:32.717Z,1.11
2023-05-10T11:48:32.630Z,1.15
2023-05-10T11:49:32.593Z,1.14
2023-05-10T11:50:32.565Z,1.11
2023-05-10T11:51:32.534Z,1.12
2023-05-10T11:52:32.502Z,1.14
2023-05-10T11:53:32.478Z,1.11
2023-05-10T11:54:32.429Z,1.09
2023-05-10T11:55:32.419Z,1.07
2023-05-10T11:56:32.553Z,1.08
2023-05-10T11:57:32.347Z,1.09
2023-05-10T11:58:32.321Z,1.10
2023-05-10T11:59:32.284Z,1.08
2023-05-10T12:00:32.264Z,1.11
2023-05-10T12:01:32.236Z,1.07
2023-05-10T12:02:33.250Z,1.07
2023-05-10T12:03:32.400Z,1.08
2023-05-10T12:04:32.178Z,1.09
2023-05-10T12:05:32.087Z,1.11
2023-05-10T12:06:32.263Z,1.13
2023-05-10T12:07:32.041Z,1.10
2023-05-10T12:08:32.047Z,1.11
2023-05-10T12:09:43.072Z,1.09
2023-05-10T12:10:32.935Z,1.09
2023-05-10T12:11:31.924Z,1.10
2023-05-10T12:12:31.889Z,1.10
2023-05-10T12:13:31.863Z,1.08
2023-05-10T12:14:31.816Z,1.12
2023-05-10T12:15:31.786Z,1.08
2023-05-10T12:16:31.915Z,1.05
2023-05-10T12:17:31.819Z,1.09
2023-05-10T12:18:32.676Z,1.08
2023-05-10T12:19:31.700Z,1.07
2023-05-10T12:20:31.652Z,1.06
2023-05-10T12:21:31.680Z,1.07
2023-05-10T12:22:31.587Z,1.05
2023-05-10T12:23:31.562Z,1.07
2023-05-10T12:24:32.279Z,1.05
2023-05-10T12:25:31.488Z,1.03
2023-05-10T12:26:31.617Z,1.03
2023-05-10T12:27:31.429Z,1.05
2023-05-10T12:28:31.404Z,1.05
2023-05-10T12:29:31.378Z,1.06
2023-05-10T12:30:31.350Z,1.04
2023-05-10T12:31:31.353Z,1.02
2023-05-10T12:32:31.327Z,1.03
2023-05-10T12:33:31.310Z,1.03
2023-05-10T12:34:31.212Z,1.06
2023-05-10T12:35:31.178Z,1.01
2023-05-10T12:36:31.284Z,1.05
2023-05-10T12:37:31.123Z,1.01
2023-05-10T12:38:31.113Z,1.04
2023-05-10T12:39:31.106Z,1.03
2023-05-10T12:40:31.096Z,1.04
2023-05-10T12:41:31.075Z,1.04
2023-05-10T12:42:31.085Z,1.04
2023-05-10T12:43:31.051Z,1.03
2023-05-10T12:44:31.056Z,1.03
2023-05-10T12:45:31.750Z,1.02
2023-05-10T12:46:31.146Z,1.01
2023-05-10T12:47:31.046Z,1.02
2023-05-10T12:48:31.022Z,1.02
2023-05-10T12:49:31.014Z,1.00
2023-05-10T12:50:31.014Z,1.01
2023-05-10T12:51:30.994Z,1.04
2023-05-10T12:52:30.974Z,1.04
2023-05-10T12:53:30.962Z,1.03
2023-05-10T12:54:31.010Z,1.01
2023-05-10T12:55:30.944Z,1.02
2023-05-10T12:56:30.957Z,1.02
2023-05-10T12:57:30.948Z,1.02
2023-05-10T12:58:35.910Z,1.03
2023-05-10T12:59:31.913Z,1.03
2023-05-10T13:00:30.859Z,1.03
2023-05-10T13:01:30.922Z,1.03
2023-05-10T13:02:30.826Z,1.03
2023-05-10T13:03:30.768Z,1.04
2023-05-10T13:04:30.773Z,1.03
2023-05-10T13:05:30.690Z,1.06
2023-05-10T13:06:30.654Z,1.04
2023-05-10T13:07:30.622Z,1.05
2023-05-10T13:08:30.599Z,1.07
2023-05-10T13:09:30.621Z,1.06
2023-05-10T13:10:30.515Z,1.05
2023-05-10T13:11:30.488Z,1.06
2023-05-10T13:12:30.462Z,1.04
2023-05-10T13:13:30.441Z,1.06
2023-05-10T13:14:30.404Z,1.03
2023-05-10T13:15:30.365Z,1.07
2023-05-10T13:16:30.418Z,1.05
2023-05-10T13:17:31.513Z,1.06
2023-05-10T13:18:30.346Z,1.08